sensor_id;sensor_type;location;lat;lon;timestamp;P1;durP1;ratioP1;P2;durP2;ratioP2
61017;SDS011;48171;51.550;5.434;2022-10-17T00:00:46;18.95;;;11.10;;
61017;SDS011;48171;51.550;5.434;2022-10-17T00:03:12;19.85;;;11.02;;
61017;SDS011;48171;51.550;5.434;2022-10-17T00:05:38;18.63;;;10.65;;
61017;SDS011;48171;51.550;5.434;2022-10-17T00:08:05;17.63;;;10.38;;
61017;SDS011;48171;51.550;5.434;2022-10-17T00:10:30;18.33;;;10.52;;
61017;SDS011;48171;51.550;5.434;2022-10-17T00:12:55;16.48;;;10.35;;
61017;SDS011;48171;51.550;5.434;2022-10-17T00:15:21;17.77;;;10.40;;
61017;SDS011;48171;51.550;5.434;2022-10-17T00:17:47;17.10;;;9.77;;
61017;SDS011;48171;51.550;5.434;2022-10-17T00:20:12;14.80;;;9.20;;
61017;SDS011;48171;51.550;5.434;2022-10-17T00:22:37;16.55;;;9.73;;
61017;SDS011;48171;51.550;5.434;2022-10-17T00:25:03;17.73;;;9.93;;
61017;SDS011;48171;51.550;5.434;2022-10-17T00:27:29;16.48;;;9.15;;
61017;SDS011;48171;51.550;5.434;2022-10-17T00:29:54;16.60;;;9.25;;
61017;SDS011;48171;51.550;5.434;2022-10-17T00:32:19;17.02;;;9.13;;
61017;SDS011;48171;51.550;5.434;2022-10-17T00:34:45;18.45;;;9.73;;
61017;SDS011;48171;51.550;5.434;2022-10-17T00:37:10;19.05;;;9.73;;
61017;SDS011;48171;51.550;5.434;2022-10-17T00:39:36;16.35;;;9.73;;
61017;SDS011;48171;51.550;5.434;2022-10-17T00:42:01;19.33;;;10.18;;
61017;SDS011;48171;51.550;5.434;2022-10-17T00:47:00;18.10;;;9.77;;
61017;SDS011;48171;51.550;5.434;2022-10-17T00:49:28;21.30;;;10.05;;
61017;SDS011;48171;51.550;5.434;2022-10-17T00:51:58;18.47;;;9.73;;
61017;SDS011;48171;51.550;5.434;2022-10-17T00:54:29;18.30;;;9.02;;
61017;SDS011;48171;51.550;5.434;2022-10-17T00:56:58;16.77;;;9.43;;
61017;SDS011;48171;51.550;5.434;2022-10-17T00:59:24;18.38;;;9.38;;
61017;SDS011;48171;51.550;5.434;2022-10-17T01:01:51;15.10;;;9.15;;
61017;SDS011;48171;51.550;5.434;2022-10-17T01:04:20;19.55;;;10.18;;
61017;SDS011;48171;51.550;5.434;2022-10-17T01:06:46;18.58;;;9.23;;
61017;SDS011;48171;51.550;5.434;2022-10-17T01:09:11;19.55;;;9.80;;
61017;SDS011;48171;51.550;5.434;2022-10-17T01:11:38;20.67;;;10.07;;
61017;SDS011;48171;51.550;5.434;2022-10-17T01:14:12;19.83;;;10.45;;
61017;SDS011;48171;51.550;5.434;2022-10-17T01:16:51;20.90;;;10.45;;
61017;SDS011;48171;51.550;5.434;2022-10-17T01:22:31;18.17;;;10.50;;
61017;SDS011;48171;51.550;5.434;2022-10-17T01:27:58;17.90;;;10.05;;
61017;SDS011;48171;51.550;5.434;2022-10-17T01:30:31;19.08;;;10.30;;
61017;SDS011;48171;51.550;5.434;2022-10-17T01:33:31;19.20;;;10.38;;
61017;SDS011;48171;51.550;5.434;2022-10-17T01:36:09;19.17;;;10.48;;
61017;SDS011;48171;51.550;5.434;2022-10-17T01:38:49;20.05;;;10.38;;
61017;SDS011;48171;51.550;5.434;2022-10-17T01:44:12;23.38;;;11.25;;
61017;SDS011;48171;51.550;5.434;2022-10-17T01:46:50;23.55;;;10.73;;
61017;SDS011;48171;51.550;5.434;2022-10-17T01:49:20;20.23;;;11.35;;
61017;SDS011;48171;51.550;5.434;2022-10-17T01:51:50;21.88;;;11.68;;
61017;SDS011;48171;51.550;5.434;2022-10-17T01:54:31;25.60;;;11.90;;
61017;SDS011;48171;51.550;5.434;2022-10-17T01:57:03;24.08;;;12.25;;
61017;SDS011;48171;51.550;5.434;2022-10-17T01:59:38;22.35;;;12.60;;
61017;SDS011;48171;51.550;5.434;2022-10-17T02:02:06;24.77;;;12.95;;
61017;SDS011;48171;51.550;5.434;2022-10-17T02:04:34;26.77;;;13.88;;
61017;SDS011;48171;51.550;5.434;2022-10-17T02:07:10;26.50;;;13.95;;
61017;SDS011;48171;51.550;5.434;2022-10-17T02:09:37;27.75;;;13.65;;
61017;SDS011;48171;51.550;5.434;2022-10-17T02:20:59;24.95;;;12.75;;
61017;SDS011;48171;51.550;5.434;2022-10-17T02:23:26;26.10;;;12.57;;
61017;SDS011;48171;51.550;5.434;2022-10-17T02:26:02;26.70;;;12.45;;
61017;SDS011;48171;51.550;5.434;2022-10-17T02:31:25;24.58;;;12.10;;
61017;SDS011;48171;51.550;5.434;2022-10-17T02:34:06;21.45;;;12.02;;
61017;SDS011;48171;51.550;5.434;2022-10-17T02:36:38;25.42;;;11.82;;
61017;SDS011;48171;51.550;5.434;2022-10-17T02:39:07;22.30;;;12.50;;
61017;SDS011;48171;51.550;5.434;2022-10-17T02:41:35;22.33;;;12.45;;
61017;SDS011;48171;51.550;5.434;2022-10-17T02:44:02;22.67;;;12.77;;
61017;SDS011;48171;51.550;5.434;2022-10-17T02:46:30;22.83;;;13.15;;
61017;SDS011;48171;51.550;5.434;2022-10-17T02:48:59;25.50;;;12.70;;
61017;SDS011;48171;51.550;5.434;2022-10-17T02:54:19;25.98;;;12.40;;
61017;SDS011;48171;51.550;5.434;2022-10-17T02:59:55;21.17;;;12.60;;
61017;SDS011;48171;51.550;5.434;2022-10-17T03:02:22;25.20;;;12.07;;
61017;SDS011;48171;51.550;5.434;2022-10-17T03:04:48;20.08;;;11.25;;
61017;SDS011;48171;51.550;5.434;2022-10-17T03:07:13;24.02;;;11.15;;
61017;SDS011;48171;51.550;5.434;2022-10-17T03:09:39;24.85;;;11.63;;
61017;SDS011;48171;51.550;5.434;2022-10-17T03:12:04;22.75;;;11.63;;
61017;SDS011;48171;51.550;5.434;2022-10-17T03:14:29;25.48;;;11.98;;
61017;SDS011;48171;51.550;5.434;2022-10-17T03:16:55;21.40;;;11.57;;
61017;SDS011;48171;51.550;5.434;2022-10-17T03:19:20;23.23;;;12.50;;
61017;SDS011;48171;51.550;5.434;2022-10-17T03:21:45;24.88;;;11.88;;
61017;SDS011;48171;51.550;5.434;2022-10-17T03:24:11;26.58;;;12.93;;
61017;SDS011;48171;51.550;5.434;2022-10-17T03:26:36;24.20;;;12.70;;
61017;SDS011;48171;51.550;5.434;2022-10-17T03:29:01;21.85;;;11.93;;
61017;SDS011;48171;51.550;5.434;2022-10-17T03:31:27;25.60;;;13.02;;
61017;SDS011;48171;51.550;5.434;2022-10-17T03:33:52;25.10;;;12.73;;
61017;SDS011;48171;51.550;5.434;2022-10-17T03:36:17;24.38;;;12.60;;
61017;SDS011;48171;51.550;5.434;2022-10-17T03:38:43;26.08;;;12.68;;
61017;SDS011;48171;51.550;5.434;2022-10-17T03:41:11;24.17;;;12.38;;
61017;SDS011;48171;51.550;5.434;2022-10-17T03:43:36;26.17;;;12.63;;
61017;SDS011;48171;51.550;5.434;2022-10-17T03:46:02;24.55;;;12.50;;
61017;SDS011;48171;51.550;5.434;2022-10-17T03:48:28;24.58;;;12.60;;
61017;SDS011;48171;51.550;5.434;2022-10-17T03:51:01;24.15;;;11.95;;
61017;SDS011;48171;51.550;5.434;2022-10-17T03:53:28;24.48;;;13.02;;
61017;SDS011;48171;51.550;5.434;2022-10-17T03:55:54;22.17;;;12.32;;
61017;SDS011;48171;51.550;5.434;2022-10-17T03:58:19;25.63;;;12.68;;
61017;SDS011;48171;51.550;5.434;2022-10-17T04:00:45;22.20;;;12.20;;
61017;SDS011;48171;51.550;5.434;2022-10-17T04:03:10;26.98;;;12.18;;
61017;SDS011;48171;51.550;5.434;2022-10-17T04:05:35;25.33;;;12.35;;
61017;SDS011;48171;51.550;5.434;2022-10-17T04:08:01;24.02;;;12.43;;
61017;SDS011;48171;51.550;5.434;2022-10-17T04:10:26;22.60;;;11.63;;
61017;SDS011;48171;51.550;5.434;2022-10-17T04:12:51;26.85;;;11.95;;
61017;SDS011;48171;51.550;5.434;2022-10-17T04:15:17;25.20;;;11.85;;
61017;SDS011;48171;51.550;5.434;2022-10-17T04:17:42;22.60;;;11.85;;
61017;SDS011;48171;51.550;5.434;2022-10-17T04:20:07;23.88;;;12.00;;
61017;SDS011;48171;51.550;5.434;2022-10-17T04:22:33;22.70;;;12.38;;
61017;SDS011;48171;51.550;5.434;2022-10-17T04:24:59;22.40;;;11.90;;
61017;SDS011;48171;51.550;5.434;2022-10-17T04:27:24;27.60;;;12.10;;
61017;SDS011;48171;51.550;5.434;2022-10-17T04:29:49;22.73;;;11.93;;
61017;SDS011;48171;51.550;5.434;2022-10-17T04:32:14;20.35;;;11.60;;
61017;SDS011;48171;51.550;5.434;2022-10-17T04:34:40;23.00;;;11.48;;
61017;SDS011;48171;51.550;5.434;2022-10-17T04:37:05;21.00;;;11.23;;
61017;SDS011;48171;51.550;5.434;2022-10-17T04:39:30;25.20;;;11.35;;
61017;SDS011;48171;51.550;5.434;2022-10-17T04:41:56;25.98;;;11.60;;
61017;SDS011;48171;51.550;5.434;2022-10-17T04:44:21;22.70;;;11.23;;
61017;SDS011;48171;51.550;5.434;2022-10-17T04:46:47;19.55;;;10.23;;
61017;SDS011;48171;51.550;5.434;2022-10-17T04:49:12;19.75;;;11.02;;
61017;SDS011;48171;51.550;5.434;2022-10-17T04:51:37;24.90;;;10.95;;
61017;SDS011;48171;51.550;5.434;2022-10-17T04:54:03;20.30;;;11.43;;
61017;SDS011;48171;51.550;5.434;2022-10-17T04:56:29;18.67;;;10.75;;
61017;SDS011;48171;51.550;5.434;2022-10-17T04:58:54;20.80;;;11.35;;
61017;SDS011;48171;51.550;5.434;2022-10-17T05:01:20;22.75;;;11.65;;
61017;SDS011;48171;51.550;5.434;2022-10-17T05:03:47;19.70;;;10.35;;
61017;SDS011;48171;51.550;5.434;2022-10-17T05:06:14;27.15;;;12.32;;
61017;SDS011;48171;51.550;5.434;2022-10-17T05:08:41;24.52;;;10.48;;
61017;SDS011;48171;51.550;5.434;2022-10-17T05:11:17;22.33;;;11.05;;
61017;SDS011;48171;51.550;5.434;2022-10-17T05:13:45;22.88;;;10.85;;
61017;SDS011;48171;51.550;5.434;2022-10-17T05:16:14;20.13;;;11.05;;
61017;SDS011;48171;51.550;5.434;2022-10-17T05:18:39;21.20;;;10.80;;
61017;SDS011;48171;51.550;5.434;2022-10-17T05:21:04;24.15;;;11.80;;
61017;SDS011;48171;51.550;5.434;2022-10-17T05:23:30;22.55;;;10.70;;
61017;SDS011;48171;51.550;5.434;2022-10-17T05:25:55;21.77;;;11.32;;
61017;SDS011;48171;51.550;5.434;2022-10-17T05:28:21;23.02;;;11.02;;
61017;SDS011;48171;51.550;5.434;2022-10-17T05:30:46;20.23;;;11.00;;
61017;SDS011;48171;51.550;5.434;2022-10-17T05:33:12;20.30;;;11.27;;
61017;SDS011;48171;51.550;5.434;2022-10-17T05:35:37;20.77;;;10.77;;
61017;SDS011;48171;51.550;5.434;2022-10-17T05:38:02;20.83;;;10.80;;
61017;SDS011;48171;51.550;5.434;2022-10-17T05:40:28;20.48;;;10.98;;
61017;SDS011;48171;51.550;5.434;2022-10-17T05:42:53;19.85;;;10.48;;
61017;SDS011;48171;51.550;5.434;2022-10-17T05:45:18;21.98;;;11.23;;
61017;SDS011;48171;51.550;5.434;2022-10-17T05:47:43;20.55;;;10.60;;
61017;SDS011;48171;51.550;5.434;2022-10-17T05:50:09;18.17;;;10.80;;
61017;SDS011;48171;51.550;5.434;2022-10-17T05:52:34;20.27;;;10.30;;
61017;SDS011;48171;51.550;5.434;2022-10-17T05:55:00;23.00;;;10.57;;
61017;SDS011;48171;51.550;5.434;2022-10-17T05:57:26;20.55;;;11.27;;
61017;SDS011;48171;51.550;5.434;2022-10-17T05:59:51;22.42;;;10.70;;
61017;SDS011;48171;51.550;5.434;2022-10-17T06:02:17;21.38;;;10.88;;
61017;SDS011;48171;51.550;5.434;2022-10-17T06:04:42;21.00;;;10.55;;
61017;SDS011;48171;51.550;5.434;2022-10-17T06:07:10;19.83;;;10.65;;
61017;SDS011;48171;51.550;5.434;2022-10-17T06:09:36;20.88;;;10.75;;
61017;SDS011;48171;51.550;5.434;2022-10-17T06:12:01;20.13;;;10.20;;
61017;SDS011;48171;51.550;5.434;2022-10-17T06:14:27;20.70;;;10.73;;
61017;SDS011;48171;51.550;5.434;2022-10-17T06:16:52;18.83;;;10.75;;
61017;SDS011;48171;51.550;5.434;2022-10-17T06:19:17;25.05;;;10.63;;
61017;SDS011;48171;51.550;5.434;2022-10-17T06:21:43;19.92;;;10.18;;
61017;SDS011;48171;51.550;5.434;2022-10-17T06:24:08;19.08;;;9.98;;
61017;SDS011;48171;51.550;5.434;2022-10-17T06:26:33;20.67;;;10.27;;
61017;SDS011;48171;51.550;5.434;2022-10-17T06:28:58;19.25;;;10.27;;
61017;SDS011;48171;51.550;5.434;2022-10-17T06:31:24;21.33;;;10.82;;
61017;SDS011;48171;51.550;5.434;2022-10-17T06:33:49;19.65;;;10.20;;
61017;SDS011;48171;51.550;5.434;2022-10-17T06:36:15;20.63;;;10.40;;
61017;SDS011;48171;51.550;5.434;2022-10-17T06:38:40;18.13;;;10.02;;
61017;SDS011;48171;51.550;5.434;2022-10-17T06:41:06;17.95;;;9.95;;
61017;SDS011;48171;51.550;5.434;2022-10-17T06:43:37;19.38;;;10.27;;
61017;SDS011;48171;51.550;5.434;2022-10-17T06:46:03;18.52;;;10.07;;
61017;SDS011;48171;51.550;5.434;2022-10-17T06:48:29;17.80;;;10.38;;
61017;SDS011;48171;51.550;5.434;2022-10-17T06:50:58;19.60;;;10.20;;
61017;SDS011;48171;51.550;5.434;2022-10-17T06:53:25;20.65;;;9.93;;
61017;SDS011;48171;51.550;5.434;2022-10-17T06:55:52;16.90;;;9.57;;
61017;SDS011;48171;51.550;5.434;2022-10-17T06:58:19;19.15;;;10.55;;
61017;SDS011;48171;51.550;5.434;2022-10-17T07:00:44;17.35;;;10.35;;
61017;SDS011;48171;51.550;5.434;2022-10-17T07:03:10;16.95;;;10.38;;
61017;SDS011;48171;51.550;5.434;2022-10-17T07:05:35;20.00;;;10.75;;
61017;SDS011;48171;51.550;5.434;2022-10-17T07:08:01;17.58;;;10.32;;
61017;SDS011;48171;51.550;5.434;2022-10-17T07:10:28;18.88;;;9.95;;
61017;SDS011;48171;51.550;5.434;2022-10-17T07:12:53;18.05;;;10.45;;
61017;SDS011;48171;51.550;5.434;2022-10-17T07:15:18;21.48;;;10.50;;
61017;SDS011;48171;51.550;5.434;2022-10-17T07:17:47;20.20;;;10.13;;
61017;SDS011;48171;51.550;5.434;2022-10-17T07:20:14;20.13;;;10.25;;
61017;SDS011;48171;51.550;5.434;2022-10-17T07:22:39;16.80;;;8.77;;
61017;SDS011;48171;51.550;5.434;2022-10-17T07:25:05;17.42;;;9.35;;
61017;SDS011;48171;51.550;5.434;2022-10-17T07:27:31;21.33;;;10.35;;
61017;SDS011;48171;51.550;5.434;2022-10-17T07:29:56;17.20;;;9.32;;
61017;SDS011;48171;51.550;5.434;2022-10-17T07:32:21;18.27;;;9.73;;
61017;SDS011;48171;51.550;5.434;2022-10-17T07:34:46;19.33;;;9.93;;
61017;SDS011;48171;51.550;5.434;2022-10-17T07:37:12;18.20;;;9.45;;
61017;SDS011;48171;51.550;5.434;2022-10-17T07:39:37;20.83;;;9.20;;
61017;SDS011;48171;51.550;5.434;2022-10-17T07:42:04;21.23;;;9.73;;
61017;SDS011;48171;51.550;5.434;2022-10-17T07:44:31;20.08;;;9.63;;
61017;SDS011;48171;51.550;5.434;2022-10-17T07:46:56;21.00;;;9.52;;
61017;SDS011;48171;51.550;5.434;2022-10-17T07:49:21;16.30;;;9.25;;
61017;SDS011;48171;51.550;5.434;2022-10-17T07:51:47;20.70;;;8.82;;
61017;SDS011;48171;51.550;5.434;2022-10-17T07:54:12;18.67;;;9.43;;
61017;SDS011;48171;51.550;5.434;2022-10-17T07:56:38;22.10;;;9.25;;
61017;SDS011;48171;51.550;5.434;2022-10-17T07:59:03;15.93;;;8.85;;
61017;SDS011;48171;51.550;5.434;2022-10-17T08:01:28;16.05;;;9.18;;
61017;SDS011;48171;51.550;5.434;2022-10-17T08:03:53;21.05;;;9.60;;
61017;SDS011;48171;51.550;5.434;2022-10-17T08:06:19;22.10;;;10.18;;
61017;SDS011;48171;51.550;5.434;2022-10-17T08:08:44;18.27;;;9.02;;
61017;SDS011;48171;51.550;5.434;2022-10-17T08:11:10;17.02;;;9.07;;
61017;SDS011;48171;51.550;5.434;2022-10-17T08:13:37;19.40;;;9.43;;
61017;SDS011;48171;51.550;5.434;2022-10-17T08:16:05;17.73;;;8.25;;
61017;SDS011;48171;51.550;5.434;2022-10-17T08:18:32;16.88;;;9.55;;
61017;SDS011;48171;51.550;5.434;2022-10-17T08:20:59;21.83;;;10.60;;
61017;SDS011;48171;51.550;5.434;2022-10-17T08:23:25;18.00;;;9.73;;
61017;SDS011;48171;51.550;5.434;2022-10-17T08:25:51;20.52;;;10.07;;
61017;SDS011;48171;51.550;5.434;2022-10-17T08:28:16;26.17;;;11.25;;
61017;SDS011;48171;51.550;5.434;2022-10-17T08:30:42;21.98;;;10.43;;
61017;SDS011;48171;51.550;5.434;2022-10-17T08:33:07;19.45;;;9.98;;
61017;SDS011;48171;51.550;5.434;2022-10-17T08:35:32;22.40;;;10.55;;
61017;SDS011;48171;51.550;5.434;2022-10-17T08:37:58;19.23;;;10.25;;
61017;SDS011;48171;51.550;5.434;2022-10-17T08:40:26;27.42;;;11.07;;
61017;SDS011;48171;51.550;5.434;2022-10-17T08:46:02;19.50;;;11.02;;
61017;SDS011;48171;51.550;5.434;2022-10-17T08:48:31;21.67;;;11.13;;
61017;SDS011;48171;51.550;5.434;2022-10-17T08:51:09;21.30;;;9.85;;
61017;SDS011;48171;51.550;5.434;2022-10-17T08:58:42;22.35;;;10.55;;
61017;SDS011;48171;51.550;5.434;2022-10-17T09:06:54;19.85;;;10.52;;
61017;SDS011;48171;51.550;5.434;2022-10-17T09:15:39;21.50;;;10.52;;
61017;SDS011;48171;51.550;5.434;2022-10-17T09:18:32;22.42;;;11.00;;
61017;SDS011;48171;51.550;5.434;2022-10-17T09:24:24;22.27;;;10.90;;
61017;SDS011;48171;51.550;5.434;2022-10-17T09:26:52;24.67;;;12.23;;
61017;SDS011;48171;51.550;5.434;2022-10-17T09:29:20;28.92;;;11.10;;
61017;SDS011;48171;51.550;5.434;2022-10-17T09:31:52;19.70;;;10.80;;
61017;SDS011;48171;51.550;5.434;2022-10-17T09:34:25;23.13;;;11.57;;
61017;SDS011;48171;51.550;5.434;2022-10-17T09:36:52;25.20;;;11.45;;
61017;SDS011;48171;51.550;5.434;2022-10-17T09:39:19;24.33;;;11.98;;
61017;SDS011;48171;51.550;5.434;2022-10-17T09:41:53;21.08;;;11.93;;
61017;SDS011;48171;51.550;5.434;2022-10-17T09:44:27;22.17;;;11.40;;
61017;SDS011;48171;51.550;5.434;2022-10-17T09:49:55;22.30;;;10.93;;
61017;SDS011;48171;51.550;5.434;2022-10-17T09:52:23;18.90;;;10.63;;
61017;SDS011;48171;51.550;5.434;2022-10-17T09:54:53;17.88;;;10.32;;
61017;SDS011;48171;51.550;5.434;2022-10-17T09:57:23;21.73;;;10.60;;
61017;SDS011;48171;51.550;5.434;2022-10-17T09:59:57;23.30;;;10.93;;
61017;SDS011;48171;51.550;5.434;2022-10-17T10:02:24;20.77;;;11.10;;
61017;SDS011;48171;51.550;5.434;2022-10-17T10:04:51;21.58;;;11.13;;
61017;SDS011;48171;51.550;5.434;2022-10-17T10:07:25;19.05;;;10.57;;
61017;SDS011;48171;51.550;5.434;2022-10-17T10:09:55;23.10;;;11.65;;
61017;SDS011;48171;51.550;5.434;2022-10-17T10:12:24;25.70;;;11.68;;
61017;SDS011;48171;51.550;5.434;2022-10-17T10:14:52;25.40;;;12.05;;
61017;SDS011;48171;51.550;5.434;2022-10-17T10:17:28;20.90;;;11.63;;
61017;SDS011;48171;51.550;5.434;2022-10-17T10:19:54;20.67;;;11.23;;
61017;SDS011;48171;51.550;5.434;2022-10-17T10:22:20;24.80;;;11.85;;
61017;SDS011;48171;51.550;5.434;2022-10-17T10:27:38;21.92;;;11.50;;
61017;SDS011;48171;51.550;5.434;2022-10-17T10:30:05;22.45;;;10.80;;
61017;SDS011;48171;51.550;5.434;2022-10-17T10:32:31;20.75;;;10.95;;
61017;SDS011;48171;51.550;5.434;2022-10-17T10:37:40;20.27;;;11.48;;
61017;SDS011;48171;51.550;5.434;2022-10-17T10:40:16;20.63;;;11.00;;
61017;SDS011;48171;51.550;5.434;2022-10-17T10:42:51;24.08;;;11.20;;
61017;SDS011;48171;51.550;5.434;2022-10-17T10:45:19;19.10;;;10.48;;
61017;SDS011;48171;51.550;5.434;2022-10-17T10:47:57;21.98;;;11.30;;
61017;SDS011;48171;51.550;5.434;2022-10-17T10:56:20;19.30;;;10.27;;
61017;SDS011;48171;51.550;5.434;2022-10-17T11:10:13;18.60;;;9.00;;
61017;SDS011;48171;51.550;5.434;2022-10-17T11:12:50;19.35;;;9.38;;
61017;SDS011;48171;51.550;5.434;2022-10-17T11:18:04;19.73;;;9.48;;
61017;SDS011;48171;51.550;5.434;2022-10-17T11:20:39;17.83;;;9.38;;
61017;SDS011;48171;51.550;5.434;2022-10-17T11:23:19;18.30;;;9.38;;
61017;SDS011;48171;51.550;5.434;2022-10-17T11:25:51;15.35;;;8.75;;
61017;SDS011;48171;51.550;5.434;2022-10-17T11:28:20;16.88;;;9.13;;
61017;SDS011;48171;51.550;5.434;2022-10-17T11:30:49;19.25;;;9.40;;
61017;SDS011;48171;51.550;5.434;2022-10-17T11:33:22;23.05;;;9.63;;
61017;SDS011;48171;51.550;5.434;2022-10-17T11:36:04;19.88;;;10.48;;
61017;SDS011;48171;51.550;5.434;2022-10-17T11:38:43;18.35;;;9.73;;
61017;SDS011;48171;51.550;5.434;2022-10-17T11:41:11;19.00;;;10.13;;
61017;SDS011;48171;51.550;5.434;2022-10-17T11:46:17;19.15;;;10.23;;
61017;SDS011;48171;51.550;5.434;2022-10-17T11:51:13;17.70;;;10.53;;
61017;SDS011;48171;51.550;5.434;2022-10-17T11:54:00;21.17;;;10.85;;
61017;SDS011;48171;51.550;5.434;2022-10-17T11:56:49;20.13;;;10.43;;
61017;SDS011;48171;51.550;5.434;2022-10-17T12:02:08;19.40;;;10.23;;
61017;SDS011;48171;51.550;5.434;2022-10-17T12:07:35;20.15;;;10.25;;
61017;SDS011;48171;51.550;5.434;2022-10-17T12:12:44;21.40;;;12.13;;
61017;SDS011;48171;51.550;5.434;2022-10-17T12:17:43;23.05;;;12.07;;
61017;SDS011;48171;51.550;5.434;2022-10-17T12:20:23;22.88;;;12.07;;
61017;SDS011;48171;51.550;5.434;2022-10-17T12:25:27;21.85;;;11.98;;
61017;SDS011;48171;51.550;5.434;2022-10-17T12:30:30;28.40;;;12.65;;
61017;SDS011;48171;51.550;5.434;2022-10-17T12:35:22;25.23;;;12.52;;
61017;SDS011;48171;51.550;5.434;2022-10-17T12:54:10;26.80;;;13.75;;
61017;SDS011;48171;51.550;5.434;2022-10-17T12:59:07;30.30;;;14.52;;
61017;SDS011;48171;51.550;5.434;2022-10-17T13:01:44;35.60;;;14.65;;
61017;SDS011;48171;51.550;5.434;2022-10-17T13:04:12;33.00;;;15.43;;
61017;SDS011;48171;51.550;5.434;2022-10-17T13:06:48;27.75;;;15.02;;
61017;SDS011;48171;51.550;5.434;2022-10-17T13:11:57;28.97;;;14.70;;
61017;SDS011;48171;51.550;5.434;2022-10-17T13:14:26;31.05;;;17.08;;
61017;SDS011;48171;51.550;5.434;2022-10-17T13:19:29;34.28;;;16.55;;
61017;SDS011;48171;51.550;5.434;2022-10-17T13:24:52;28.17;;;15.73;;
61017;SDS011;48171;51.550;5.434;2022-10-17T13:27:32;28.75;;;15.68;;
61017;SDS011;48171;51.550;5.434;2022-10-17T13:29:59;29.63;;;15.63;;
61017;SDS011;48171;51.550;5.434;2022-10-17T13:32:27;26.88;;;14.80;;
61017;SDS011;48171;51.550;5.434;2022-10-17T13:35:09;27.17;;;15.60;;
61017;SDS011;48171;51.550;5.434;2022-10-17T13:37:38;26.80;;;14.68;;
61017;SDS011;48171;51.550;5.434;2022-10-17T13:40:05;26.17;;;14.85;;
61017;SDS011;48171;51.550;5.434;2022-10-17T13:42:37;25.90;;;14.77;;
61017;SDS011;48171;51.550;5.434;2022-10-17T13:45:10;28.52;;;14.63;;
61017;SDS011;48171;51.550;5.434;2022-10-17T13:47:43;24.73;;;14.30;;
61017;SDS011;48171;51.550;5.434;2022-10-17T13:50:18;25.23;;;13.68;;
61017;SDS011;48171;51.550;5.434;2022-10-17T13:52:47;23.02;;;13.60;;
61017;SDS011;48171;51.550;5.434;2022-10-17T13:55:14;25.85;;;14.20;;
61017;SDS011;48171;51.550;5.434;2022-10-17T13:57:41;30.73;;;14.18;;
61017;SDS011;48171;51.550;5.434;2022-10-17T14:00:10;23.13;;;13.23;;
61017;SDS011;48171;51.550;5.434;2022-10-17T14:02:43;24.83;;;13.32;;
61017;SDS011;48171;51.550;5.434;2022-10-17T14:05:10;24.52;;;12.05;;
61017;SDS011;48171;51.550;5.434;2022-10-17T14:07:59;25.67;;;13.07;;
61017;SDS011;48171;51.550;5.434;2022-10-17T14:10:33;25.63;;;12.65;;
61017;SDS011;48171;51.550;5.434;2022-10-17T14:13:02;28.02;;;13.23;;
61017;SDS011;48171;51.550;5.434;2022-10-17T14:15:32;25.40;;;13.80;;
61017;SDS011;48171;51.550;5.434;2022-10-17T14:18:00;24.40;;;13.20;;
61017;SDS011;48171;51.550;5.434;2022-10-17T14:20:27;27.50;;;12.93;;
61017;SDS011;48171;51.550;5.434;2022-10-17T14:22:54;22.13;;;12.55;;
61017;SDS011;48171;51.550;5.434;2022-10-17T14:27:54;24.55;;;12.68;;
61017;SDS011;48171;51.550;5.434;2022-10-17T14:30:31;26.40;;;13.32;;
61017;SDS011;48171;51.550;5.434;2022-10-17T14:33:00;23.02;;;12.15;;
61017;SDS011;48171;51.550;5.434;2022-10-17T14:35:27;21.83;;;13.00;;
61017;SDS011;48171;51.550;5.434;2022-10-17T14:37:58;22.25;;;12.23;;
61017;SDS011;48171;51.550;5.434;2022-10-17T14:40:26;28.73;;;12.75;;
61017;SDS011;48171;51.550;5.434;2022-10-17T14:42:53;25.80;;;11.82;;
61017;SDS011;48171;51.550;5.434;2022-10-17T14:45:22;22.80;;;11.80;;
61017;SDS011;48171;51.550;5.434;2022-10-17T14:47:49;24.08;;;12.45;;
61017;SDS011;48171;51.550;5.434;2022-10-17T14:55:56;22.80;;;12.32;;
61017;SDS011;48171;51.550;5.434;2022-10-17T14:58:24;27.75;;;12.95;;
61017;SDS011;48171;51.550;5.434;2022-10-17T15:00:54;23.42;;;13.20;;
61017;SDS011;48171;51.550;5.434;2022-10-17T15:03:19;25.73;;;13.25;;
61017;SDS011;48171;51.550;5.434;2022-10-17T15:05:46;24.40;;;12.60;;
61017;SDS011;48171;51.550;5.434;2022-10-17T15:08:12;25.75;;;14.35;;
61017;SDS011;48171;51.550;5.434;2022-10-17T15:10:42;24.90;;;13.77;;
61017;SDS011;48171;51.550;5.434;2022-10-17T15:13:09;26.67;;;13.70;;
61017;SDS011;48171;51.550;5.434;2022-10-17T15:15:35;24.83;;;14.10;;
61017;SDS011;48171;51.550;5.434;2022-10-17T15:18:01;25.45;;;14.50;;
61017;SDS011;48171;51.550;5.434;2022-10-17T15:20:27;25.38;;;13.88;;
61017;SDS011;48171;51.550;5.434;2022-10-17T15:22:54;28.52;;;14.15;;
61017;SDS011;48171;51.550;5.434;2022-10-17T15:25:21;26.08;;;15.25;;
61017;SDS011;48171;51.550;5.434;2022-10-17T15:27:47;29.40;;;15.82;;
61017;SDS011;48171;51.550;5.434;2022-10-17T15:30:17;30.50;;;14.35;;
61017;SDS011;48171;51.550;5.434;2022-10-17T15:32:51;26.38;;;15.30;;
61017;SDS011;48171;51.550;5.434;2022-10-17T15:35:17;27.75;;;14.68;;
61017;SDS011;48171;51.550;5.434;2022-10-17T15:37:43;34.30;;;15.63;;
61017;SDS011;48171;51.550;5.434;2022-10-17T15:40:21;26.17;;;14.63;;
61017;SDS011;48171;51.550;5.434;2022-10-17T15:42:52;29.52;;;15.20;;
61017;SDS011;48171;51.550;5.434;2022-10-17T15:45:17;30.85;;;15.57;;
61017;SDS011;48171;51.550;5.434;2022-10-17T15:47:53;28.88;;;15.65;;
61017;SDS011;48171;51.550;5.434;2022-10-17T15:50:20;26.15;;;15.27;;
61017;SDS011;48171;51.550;5.434;2022-10-17T15:52:46;27.35;;;15.90;;
61017;SDS011;48171;51.550;5.434;2022-10-17T15:55:15;31.23;;;17.20;;
61017;SDS011;48171;51.550;5.434;2022-10-17T15:57:42;25.10;;;14.85;;
61017;SDS011;48171;51.550;5.434;2022-10-17T16:00:14;27.10;;;15.77;;
61017;SDS011;48171;51.550;5.434;2022-10-17T16:02:45;28.90;;;15.70;;
61017;SDS011;48171;51.550;5.434;2022-10-17T16:05:15;30.35;;;16.08;;
61017;SDS011;48171;51.550;5.434;2022-10-17T16:07:43;33.92;;;16.15;;
61017;SDS011;48171;51.550;5.434;2022-10-17T16:10:10;27.48;;;15.63;;
61017;SDS011;48171;51.550;5.434;2022-10-17T16:12:37;29.75;;;16.35;;
61017;SDS011;48171;51.550;5.434;2022-10-17T16:15:06;36.03;;;16.60;;
61017;SDS011;48171;51.550;5.434;2022-10-17T16:17:39;29.00;;;15.32;;
61017;SDS011;48171;51.550;5.434;2022-10-17T16:20:05;33.88;;;16.30;;
61017;SDS011;48171;51.550;5.434;2022-10-17T16:22:32;28.42;;;16.13;;
61017;SDS011;48171;51.550;5.434;2022-10-17T16:25:02;28.83;;;15.82;;
61017;SDS011;48171;51.550;5.434;2022-10-17T16:27:33;32.83;;;16.77;;
61017;SDS011;48171;51.550;5.434;2022-10-17T16:30:04;34.00;;;17.33;;
61017;SDS011;48171;51.550;5.434;2022-10-17T16:32:30;39.38;;;18.15;;
61017;SDS011;48171;51.550;5.434;2022-10-17T16:34:56;34.90;;;16.90;;
61017;SDS011;48171;51.550;5.434;2022-10-17T16:37:23;34.50;;;17.17;;
61017;SDS011;48171;51.550;5.434;2022-10-17T16:39:48;29.52;;;15.88;;
61017;SDS011;48171;51.550;5.434;2022-10-17T16:42:16;36.42;;;15.90;;
61017;SDS011;48171;51.550;5.434;2022-10-17T16:44:42;32.28;;;16.38;;
61017;SDS011;48171;51.550;5.434;2022-10-17T16:47:07;28.48;;;15.85;;
61017;SDS011;48171;51.550;5.434;2022-10-17T16:49:33;27.77;;;14.98;;